Time;durP1;ratioP1;P1;durP2;ratioP2;P2;SDS_P1;SDS_P2;PMS_P1;PMS_P2;Temp;Humidity;BMP_temperature;BMP_pressure;BME280_temperature;BME280_humidity;BME280_pressure;Samples;Min_cycle;Max_cycle;Signal;HPM_P1;HPM_P2
2022/08/17 00:02:22;;;;;;;8.23;3.27;;;;;;;;;;5070972;28;20182;-73
2022/08/17 00:04:48;;;;;;;7.07;3.30;;;;;;;;;;5056540;28;20634;-72
2022/08/17 00:07:13;;;;;;;4.30;3.50;;;;;;;;;;5075426;28;20144;-71
2022/08/17 00:09:38;;;;;;;4.50;2.92;;;;;;;;;;5073935;28;20032;-73
2022/08/17 00:12:04;;;;;;;6.63;3.10;;;;;;;;;;5073634;28;20032;-71
2022/08/17 00:14:29;;;;;;;3.53;3.00;;;;;;;;;;5056797;28;20261;-72
2022/08/17 00:16:55;;;;;;;12.60;3.20;;;;;;;;;;5059436;28;20500;-72
2022/08/17 00:19:22;;;;;;;6.55;3.40;;;;;;;;;;5076468;28;20092;-72
2022/08/17 00:21:50;;;;;;;6.00;3.25;;;;;;;;;;5058545;28;20036;-72
2022/08/17 00:24:15;;;;;;;5.03;3.03;;;;;;;;;;5074947;28;20025;-72
2022/08/17 00:26:41;;;;;;;6.13;3.08;;;;;;;;;;5076645;28;20063;-73
2022/08/17 00:29:07;;;;;;;4.55;3.00;;;;;;;;;;5060797;28;20030;-71
2022/08/17 00:31:34;;;;;;;3.65;3.30;;;;;;;;;;5080207;28;20024;-73
2022/08/17 00:33:59;;;;;;;5.90;3.38;;;;;;;;;;5061657;28;20040;-72
2022/08/17 00:36:25;;;;;;;5.97;3.10;;;;;;;;;;5080106;28;20482;-72
2022/08/17 00:38:50;;;;;;;4.13;3.15;;;;;;;;;;5080724;28;20024;-72
2022/08/17 00:41:23;;;;;;;6.65;3.30;;;;;;;;;;5080914;28;20146;-73
2022/08/17 00:44:01;;;;;;;9.48;3.38;;;;;;;;;;5080381;28;20055;-71
2022/08/17 00:46:33;;;;;;;5.47;3.42;;;;;;;;;;5081049;28;20059;-72
2022/08/17 00:48:59;;;;;;;4.43;3.25;;;;;;;;;;5063184;28;20478;-71
2022/08/17 00:51:45;;;;;;;5.50;3.35;;;;;;;;;;5081609;28;20051;-71
2022/08/17 00:54:32;;;;;;;5.53;3.60;;;;;;;;;;5078792;28;20517;-71
2022/08/17 00:57:05;;;;;;;4.97;3.47;;;;;;;;;;5070117;28;20033;-73
2022/08/17 00:59:36;;;;;;;5.57;3.70;;;;;;;;;;5052428;28;20432;-71
2022/08/17 01:02:02;;;;;;;6.78;3.20;;;;;;;;;;5052999;28;20032;-71
2022/08/17 01:04:28;;;;;;;4.75;3.17;;;;;;;;;;5070429;28;20064;-72
2022/08/17 01:06:55;;;;;;;5.85;3.33;;;;;;;;;;5069345;28;20064;-71
2022/08/17 01:09:20;;;;;;;4.38;3.03;;;;;;;;;;5069977;28;20035;-73
2022/08/17 01:11:50;;;;;;;8.05;3.20;;;;;;;;;;5069851;28;20028;-71
2022/08/17 01:14:20;;;;;;;3.88;3.40;;;;;;;;;;5069856;28;20020;-72
2022/08/17 01:16:48;;;;;;;11.20;3.20;;;;;;;;;;5069824;28;20103;-71
2022/08/17 01:19:18;;;;;;;4.60;3.28;;;;;;;;;;5051300;28;20043;-71
2022/08/17 01:21:55;;;;;;;4.95;3.17;;;;;;;;;;5070201;28;20116;-71
2022/08/17 01:24:20;;;;;;;4.15;3.20;;;;;;;;;;5069837;28;20068;-72
2022/08/17 01:26:46;;;;;;;5.32;3.33;;;;;;;;;;5069581;28;20422;-72
2022/08/17 01:29:12;;;;;;;7.32;3.63;;;;;;;;;;5070152;28;20035;-71
2022/08/17 01:31:43;;;;;;;4.82;3.20;;;;;;;;;;5069598;28;20082;-71
2022/08/17 01:34:10;;;;;;;6.30;3.20;;;;;;;;;;5069959;28;20027;-71
2022/08/17 01:36:39;;;;;;;5.20;3.47;;;;;;;;;;5069604;28;20103;-72
2022/08/17 01:39:08;;;;;;;4.25;3.50;;;;;;;;;;5069713;28;20119;-71
2022/08/17 01:41:34;;;;;;;4.57;3.33;;;;;;;;;;5069855;28;20159;-72
2022/08/17 01:44:02;;;;;;;5.18;3.10;;;;;;;;;;5051473;28;20025;-71
2022/08/17 01:46:32;;;;;;;5.00;3.42;;;;;;;;;;5069443;28;20027;-72
2022/08/17 01:48:58;;;;;;;6.43;3.58;;;;;;;;;;5068955;28;20032;-72
2022/08/17 01:51:25;;;;;;;7.70;3.40;;;;;;;;;;5071735;28;20028;-72
2022/08/17 01:53:56;;;;;;;9.00;3.33;;;;;;;;;;5073465;28;20020;-70
2022/08/17 01:56:23;;;;;;;5.90;3.30;;;;;;;;;;5055275;28;20048;-72
2022/08/17 01:58:49;;;;;;;5.07;3.35;;;;;;;;;;5073027;28;20519;-72
2022/08/17 02:01:19;;;;;;;11.73;3.90;;;;;;;;;;5073297;28;20029;-72
2022/08/17 02:03:45;;;;;;;3.65;3.22;;;;;;;;;;5072951;28;20516;-71
2022/08/17 02:06:11;;;;;;;5.28;3.08;;;;;;;;;;5072742;28;20033;-72
2022/08/17 02:08:36;;;;;;;6.28;3.60;;;;;;;;;;5072676;28;20021;-71
2022/08/17 02:11:06;;;;;;;5.00;3.33;;;;;;;;;;5073115;28;20088;-73
2022/08/17 02:13:32;;;;;;;4.20;3.33;;;;;;;;;;5073118;28;20254;-72
2022/08/17 02:15:58;;;;;;;7.53;3.42;;;;;;;;;;5072859;28;20028;-72
2022/08/17 02:18:24;;;;;;;4.82;3.28;;;;;;;;;;5072749;28;20059;-72
2022/08/17 02:20:49;;;;;;;7.00;3.25;;;;;;;;;;5054421;28;20396;-72
2022/08/17 02:23:15;;;;;;;7.18;3.70;;;;;;;;;;5072588;28;20033;-70
2022/08/17 02:25:43;;;;;;;5.20;3.47;;;;;;;;;;5054699;28;20024;-72
2022/08/17 02:28:09;;;;;;;6.25;3.60;;;;;;;;;;5072685;28;20074;-71
2022/08/17 02:30:35;;;;;;;7.47;3.67;;;;;;;;;;5054297;28;20028;-71
2022/08/17 02:33:01;;;;;;;7.25;3.70;;;;;;;;;;5071703;28;20021;-72
2022/08/17 02:35:26;;;;;;;7.03;3.80;;;;;;;;;;5072283;28;20039;-71
2022/08/17 02:37:52;;;;;;;5.38;3.30;;;;;;;;;;5072251;28;20052;-71
2022/08/17 02:40:18;;;;;;;4.35;3.58;;;;;;;;;;5054263;28;20563;-71
2022/08/17 02:42:44;;;;;;;4.38;3.85;;;;;;;;;;5054051;28;20241;-70
2022/08/17 02:45:15;;;;;;;4.50;3.55;;;;;;;;;;5071757;28;20024;-71
2022/08/17 02:47:42;;;;;;;5.75;3.40;;;;;;;;;;5072166;28;20103;-71
2022/08/17 02:50:09;;;;;;;5.55;3.30;;;;;;;;;;5053972;28;20032;-71
2022/08/17 02:52:38;;;;;;;5.18;3.65;;;;;;;;;;5072033;28;20017;-70
2022/08/17 02:55:05;;;;;;;6.40;3.80;;;;;;;;;;5071573;28;20135;-73
2022/08/17 02:57:30;;;;;;;8.40;3.67;;;;;;;;;;5071932;28;20067;-72
2022/08/17 02:59:55;;;;;;;7.00;4.07;;;;;;;;;;5072106;28;20340;-72
2022/08/17 03:02:21;;;;;;;6.43;3.78;;;;;;;;;;5071258;28;20291;-72
2022/08/17 03:04:46;;;;;;;4.00;3.43;;;;;;;;;;5071848;28;20495;-72
2022/08/17 03:07:11;;;;;;;5.70;3.45;;;;;;;;;;5071821;28;20739;-71
2022/08/17 03:09:36;;;;;;;6.83;3.53;;;;;;;;;;5072102;28;20025;-71
2022/08/17 03:12:04;;;;;;;7.00;3.70;;;;;;;;;;5071706;28;20320;-71
2022/08/17 03:14:31;;;;;;;5.25;3.53;;;;;;;;;;5055217;28;20868;-71
2022/08/17 03:16:56;;;;;;;5.38;3.65;;;;;;;;;;5053772;28;20054;-70
2022/08/17 03:19:22;;;;;;;9.05;3.90;;;;;;;;;;5072110;28;20059;-71
2022/08/17 03:21:47;;;;;;;10.88;3.50;;;;;;;;;;5071947;28;20036;-72
2022/08/17 03:24:13;;;;;;;7.00;4.00;;;;;;;;;;5072080;28;20103;-72
2022/08/17 03:26:39;;;;;;;8.05;3.55;;;;;;;;;;5071711;28;20265;-72
2022/08/17 03:29:04;;;;;;;8.53;3.73;;;;;;;;;;5071408;28;20024;-70
2022/08/17 03:31:30;;;;;;;4.50;3.30;;;;;;;;;;5071657;28;20310;-71
2022/08/17 03:33:56;;;;;;;7.00;3.83;;;;;;;;;;5071479;28;20258;-71
2022/08/17 03:36:21;;;;;;;6.57;3.70;;;;;;;;;;5053202;28;20190;-73
2022/08/17 03:38:47;;;;;;;8.18;3.80;;;;;;;;;;5071167;28;20156;-71
2022/08/17 03:41:12;;;;;;;7.83;3.57;;;;;;;;;;5071628;28;20033;-70
2022/08/17 03:43:38;;;;;;;7.15;3.75;;;;;;;;;;5070419;28;20277;-73
2022/08/17 03:57:06;;;;;;;5.85;3.67;;;;;;;;;;5070548;28;20036;-71
2022/08/17 03:59:33;;;;;;;5.78;3.78;;;;;;;;;;5070661;28;20039;-72
2022/08/17 04:02:07;;;;;;;5.53;3.70;;;;;;;;;;5070519;28;20561;-71
2022/08/17 04:04:33;;;;;;;8.52;3.80;;;;;;;;;;5073138;28;20025;-70
2022/08/17 04:06:59;;;;;;;6.55;4.13;;;;;;;;;;5038216;28;20378;-70
2022/08/17 04:09:24;;;;;;;6.13;4.22;;;;;;;;;;5074188;28;20056;-71
2022/08/17 04:11:50;;;;;;;7.57;4.00;;;;;;;;;;5056573;28;20024;-71
2022/08/17 04:14:15;;;;;;;6.20;4.25;;;;;;;;;;5072842;28;20066;-70
2022/08/17 04:16:40;;;;;;;5.87;4.07;;;;;;;;;;5055933;28;20030;-70
2022/08/17 04:19:06;;;;;;;8.93;4.23;;;;;;;;;;5074076;28;20260;-69
2022/08/17 04:21:33;;;;;;;6.88;4.72;;;;;;;;;;5074141;28;20738;-71
2022/08/17 04:23:58;;;;;;;8.18;4.50;;;;;;;;;;5073981;28;20024;-71
2022/08/17 04:26:23;;;;;;;10.05;4.30;;;;;;;;;;5074052;28;20067;-70
2022/08/17 04:28:49;;;;;;;10.27;4.43;;;;;;;;;;5074029;28;20146;-70
2022/08/17 04:31:15;;;;;;;5.25;4.10;;;;;;;;;;5073685;28;20372;-70
2022/08/17 04:33:42;;;;;;;7.32;4.40;;;;;;;;;;5055670;28;20051;-70
2022/08/17 04:36:09;;;;;;;5.38;4.10;;;;;;;;;;5073785;28;20471;-72
2022/08/17 04:38:36;;;;;;;7.70;4.40;;;;;;;;;;5074054;28;20037;-71
2022/08/17 04:43:48;;;;;;;6.30;4.20;;;;;;;;;;5074062;28;20036;-71
2022/08/17 04:46:16;;;;;;;8.75;4.15;;;;;;;;;;5074158;28;20478;-72
2022/08/17 04:48:44;;;;;;;6.80;4.40;;;;;;;;;;5073580;28;20438;-71
2022/08/17 04:51:28;;;;;;;12.82;4.72;;;;;;;;;;5073364;28;20075;-69
2022/08/17 04:53:56;;;;;;;5.33;4.20;;;;;;;;;;5073341;28;20074;-71
2022/08/17 04:56:24;;;;;;;9.10;4.68;;;;;;;;;;5073364;28;20257;-71
2022/08/17 04:58:52;;;;;;;5.25;4.13;;;;;;;;;;5073425;28;20025;-71
2022/08/17 05:01:19;;;;;;;6.43;4.50;;;;;;;;;;5073421;28;20028;-70
2022/08/17 05:03:44;;;;;;;7.50;4.45;;;;;;;;;;5073134;28;20466;-70
2022/08/17 05:06:10;;;;;;;6.05;4.32;;;;;;;;;;5056120;28;20119;-70
2022/08/17 05:08:35;;;;;;;6.15;4.55;;;;;;;;;;5073175;28;20367;-71
2022/08/17 05:11:00;;;;;;;8.00;4.70;;;;;;;;;;5073633;28;20035;-71
2022/08/17 05:13:28;;;;;;;8.13;4.20;;;;;;;;;;5073372;28;20266;-71
2022/08/17 05:15:57;;;;;;;7.03;4.40;;;;;;;;;;5073110;28;20272;-70
2022/08/17 05:18:22;;;;;;;9.38;4.20;;;;;;;;;;5073185;28;20029;-71
2022/08/17 05:20:47;;;;;;;8.82;4.35;;;;;;;;;;5055431;28;20474;-71
2022/08/17 05:23:15;;;;;;;5.05;4.00;;;;;;;;;;5073128;28;20031;-71
2022/08/17 05:25:47;;;;;;;10.10;4.63;;;;;;;;;;5075879;28;20031;-71
2022/08/17 05:28:13;;;;;;;12.10;4.88;;;;;;;;;;5077283;28;20030;-70
2022/08/17 05:30:41;;;;;;;7.35;4.90;;;;;;;;;;5077199;28;20040;-70
2022/08/17 05:33:18;;;;;;;5.70;4.72;;;;;;;;;;5059153;28;20025;-71
2022/08/17 05:35:47;;;;;;;7.32;4.60;;;;;;;;;;5077266;28;20032;-71
2022/08/17 05:38:13;;;;;;;5.93;4.43;;;;;;;;;;5077175;28;20025;-70
2022/08/17 05:40:39;;;;;;;6.97;4.72;;;;;;;;;;5076998;28;20430;-70
2022/08/17 05:43:15;;;;;;;7.90;4.50;;;;;;;;;;5059013;28;20045;-70
2022/08/17 05:45:58;;;;;;;7.60;4.50;;;;;;;;;;5077020;28;20048;-71
2022/08/17 05:48:24;;;;;;;10.25;4.78;;;;;;;;;;5076883;28;20111;-71
2022/08/17 05:51:21;;;;;;;10.40;4.47;;;;;;;;;;5076762;28;20528;-71
2022/08/17 05:53:49;;;;;;;9.70;4.53;;;;;;;;;;5039411;28;20124;-72
2022/08/17 05:56:45;;;;;;;5.22;4.50;;;;;;;;;;5077802;28;20024;-71
2022/08/17 05:59:39;;;;;;;8.63;4.25;;;;;;;;;;5033334;28;20071;-70
2022/08/17 06:02:13;;;;;;;;;;;;;;;;;;5078009;28;20553;-72
2022/08/17 06:05:15;;;;;;;8.30;4.38;;;;;;;;;;5078678;28;19912;-72
2022/08/17 06:07:48;;;;;;;7.85;4.57;;;;;;;;;;5064284;28;20036;-70
2022/08/17 06:10:35;;;;;;;5.68;4.65;;;;;;;;;;5080209;28;20028;-70
2022/08/17 06:13:11;;;;;;;6.53;4.47;;;;;;;;;;5081920;28;20388;-71
2022/08/17 06:16:19;;;;;;;8.15;4.45;;;;;;;;;;5064595;28;20024;-71
2022/08/17 06:18:52;;;;;;;6.32;4.45;;;;;;;;;;5077324;28;20031;-70
2022/08/17 06:21:18;;;;;;;9.38;4.20;;;;;;;;;;5076994;28;20492;-71
2022/08/17 06:23:49;;;;;;;8.18;4.10;;;;;;;;;;5076758;28;20425;-71
2022/08/17 06:26:24;;;;;;;13.23;4.30;;;;;;;;;;5077196;28;20063;-70
2022/08/17 06:28:58;;;;;;;5.70;3.97;;;;;;;;;;5076777;28;20489;-72
2022/08/17 06:31:29;;;;;;;;;;;;;;;;;;5077265;28;20063;-70
2022/08/17 06:33:56;;;;;;;10.23;3.92;;;;;;;;;;5076809;28;19912;-71
2022/08/17 06:36:40;;;;;;;5.65;3.70;;;;;;;;;;5076014;28;20518;-71
2022/08/17 06:39:25;;;;;;;8.10;4.20;;;;;;;;;;5076932;28;20031;-71
2022/08/17 06:41:56;;;;;;;6.13;4.00;;;;;;;;;;5058668;28;20025;-72
2022/08/17 06:45:02;;;;;;;7.50;3.97;;;;;;;;;;5076013;28;20024;-71
2022/08/17 06:47:51;;;;;;;6.35;4.07;;;;;;;;;;5010194;28;20080;-70
2022/08/17 06:50:26;;;;;;;5.68;4.20;;;;;;;;;;5075787;28;20029;-71
2022/08/17 06:53:17;;;;;;;9.05;4.60;;;;;;;;;;5075935;28;20359;-70
2022/08/17 06:56:03;;;;;;;3.90;3.47;;;;;;;;;;5076220;28;20029;-70
2022/08/17 06:58:30;;;;;;;7.38;3.67;;;;;;;;;;5075602;28;20409;-72
2022/08/17 07:00:59;;;;;;;7.35;3.70;;;;;;;;;;5075810;28;20107;-72
2022/08/17 07:03:36;;;;;;;8.07;3.45;;;;;;;;;;5075493;28;20048;-71
2022/08/17 07:06:17;;;;;;;14.40;3.50;;;;;;;;;;5076332;28;20027;-72
2022/08/17 07:09:07;;;;;;;8.05;3.72;;;;;;;;;;5075430;28;20486;-71
2022/08/17 07:11:40;;;;;;;6.53;3.50;;;;;;;;;;5076003;28;20040;-70
2022/08/17 07:14:32;;;;;;;13.20;4.38;;;;;;;;;;5075607;28;20147;-71
2022/08/17 07:17:01;;;;;;;7.07;3.85;;;;;;;;;;5075311;28;20508;-71
2022/08/17 07:19:30;;;;;;;9.10;4.32;;;;;;;;;;5075513;28;20150;-69
2022/08/17 07:22:25;;;;;;;6.88;4.20;;;;;;;;;;5075036;28;20032;-71
2022/08/17 07:24:56;;;;;;;6.93;3.92;;;;;;;;;;5074806;28;20033;-71
2022/08/17 07:27:30;;;;;;;6.30;3.67;;;;;;;;;;5057256;28;20477;-72
2022/08/17 07:30:24;;;;;;;9.32;3.55;;;;;;;;;;5074708;28;20035;-70
2022/08/17 07:32:58;;;;;;;9.77;3.80;;;;;;;;;;5057771;28;20115;-70
2022/08/17 07:35:41;;;;;;;4.80;3.55;;;;;;;;;;5056796;28;20067;-71
2022/08/17 07:38:09;;;;;;;5.78;3.63;;;;;;;;;;5075332;28;20024;-71
2022/08/17 07:40:38;;;;;;;7.57;3.70;;;;;;;;;;5075043;28;20382;-70
2022/08/17 07:43:14;;;;;;;6.50;3.40;;;;;;;;;;5074682;28;20111;-70
2022/08/17 07:48:52;;;;;;;7.57;3.20;;;;;;;;;;5074660;28;20031;-71
2022/08/17 07:51:19;;;;;;;7.07;3.08;;;;;;;;;;5056566;28;20020;-71
2022/08/17 07:53:45;;;;;;;6.13;3.50;;;;;;;;;;5074528;28;20056;-72
2022/08/17 07:56:14;;;;;;;10.10;3.30;;;;;;;;;;5074302;28;20083;-71
2022/08/17 07:58:41;;;;;;;4.22;3.08;;;;;;;;;;5057067;28;20035;-71
2022/08/17 08:01:17;;;;;;;4.97;3.00;;;;;;;;;;5056572;28;20024;-70
2022/08/17 08:03:44;;;;;;;4.03;2.65;;;;;;;;;;5056573;28;20123;-71
2022/08/17 08:06:23;;;;;;;5.32;3.10;;;;;;;;;;5074069;28;20029;-72
2022/08/17 08:08:53;;;;;;;5.00;3.15;;;;;;;;;;5074359;28;20024;-69
2022/08/17 08:11:31;;;;;;;8.60;3.28;;;;;;;;;;5056257;28;20088;-70
2022/08/17 08:14:20;;;;;;;5.88;3.38;;;;;;;;;;5074128;28;20018;-71
2022/08/17 08:17:01;;;;;;;3.92;3.00;;;;;;;;;;5056225;28;20021;-70
2022/08/17 08:19:28;;;;;;;7.28;3.35;;;;;;;;;;5074223;28;20094;-70
2022/08/17 08:22:02;;;;;;;5.63;3.40;;;;;;;;;;5074440;28;20347;-70
2022/08/17 08:24:54;;;;;;;7.60;3.20;;;;;;;;;;5074140;28;20020;-70
2022/08/17 08:27:51;;;;;;;7.15;3.10;;;;;;;;;;5056656;28;20028;-70
2022/08/17 08:30:20;;;;;;;4.47;3.40;;;;;;;;;;5074387;28;20481;-77
2022/08/17 08:33:03;;;;;;;4.57;3.42;;;;;;;;;;5073289;28;20029;-75
2022/08/17 08:35:38;;;;;;;9.27;3.30;;;;;;;;;;5055398;28;20082;-76
2022/08/17 08:38:23;;;;;;;8.30;3.40;;;;;;;;;;5073587;28;20061;-76
2022/08/17 08:41:20;;;;;;;8.52;3.53;;;;;;;;;;5073365;28;20024;-75
2022/08/17 08:44:25;;;;;;;13.02;3.50;;;;;;;;;;5030246;28;20044;-75
2022/08/17 08:47:19;;;;;;;5.78;3.15;;;;;;;;;;5073096;28;20033;-74
2022/08/17 08:50:26;;;;;;;8.57;3.30;;;;;;;;;;5073335;28;20068;-76
2022/08/17 08:53:05;;;;;;;7.70;3.35;;;;;;;;;;5073258;28;20095;-76
2022/08/17 08:55:59;;;;;;;12.05;3.80;;;;;;;;;;5073228;28;20033;-75
2022/08/17 08:58:33;;;;;;;5.55;3.08;;;;;;;;;;5055546;28;20434;-77
2022/08/17 09:01:07;;;;;;;8.25;3.25;;;;;;;;;;5072812;28;20378;-75
2022/08/17 09:03:54;;;;;;;8.43;3.45;;;;;;;;;;5054896;28;20107;-75
2022/08/17 09:06:56;;;;;;;5.68;2.95;;;;;;;;;;5073453;28;20138;-76
2022/08/17 09:09:24;;;;;;;4.63;2.92;;;;;;;;;;5073132;28;20043;-76
2022/08/17 09:12:14;;;;;;;7.78;3.13;;;;;;;;;;5073291;28;20024;-74
2022/08/17 09:14:47;;;;;;;9.70;3.15;;;;;;;;;;5054722;28;20074;-76
2022/08/17 09:17:19;;;;;;;12.68;3.05;;;;;;;;;;5054775;28;20059;-74
2022/08/17 09:19:55;;;;;;;6.10;2.88;;;;;;;;;;5072693;28;20024;-74
2022/08/17 09:22:24;;;;;;;5.35;2.83;;;;;;;;;;5072471;28;20438;-76
2022/08/17 09:25:02;;;;;;;9.23;3.00;;;;;;;;;;5054742;28;20028;-74
2022/08/17 09:27:34;;;;;;;4.00;2.72;;;;;;;;;;5072957;28;20381;-75
2022/08/17 09:30:05;;;;;;;5.53;3.00;;;;;;;;;;5073151;28;20110;-77
2022/08/17 09:32:37;;;;;;;7.07;2.90;;;;;;;;;;5073365;28;20035;-77
2022/08/17 09:35:10;;;;;;;5.80;2.67;;;;;;;;;;5073447;28;20116;-77
2022/08/17 09:37:51;;;;;;;5.25;3.00;;;;;;;;;;5072882;28;20032;-76
2022/08/17 09:40:37;;;;;;;6.03;2.47;;;;;;;;;;5072799;28;20112;-77
2022/08/17 09:43:15;;;;;;;5.18;2.50;;;;;;;;;;5074007;28;20103;-75
2022/08/17 09:45:44;;;;;;;5.88;2.20;;;;;;;;;;5072532;28;20393;-77
2022/08/17 09:48:20;;;;;;;3.88;2.30;;;;;;;;;;5072372;28;20473;-74
2022/08/17 09:51:20;;;;;;;4.40;2.35;;;;;;;;;;5072684;28;20059;-75
2022/08/17 09:53:45;;;;;;;3.05;2.15;;;;;;;;;;4971087;28;20037;-75
2022/08/17 09:56:32;;;;;;;2.58;2.30;;;;;;;;;;5072380;28;20024;-75
2022/08/17 09:59:31;;;;;;;3.85;2.17;;;;;;;;;;5072284;28;20485;-75
2022/08/17 10:02:39;;;;;;;3.22;2.00;;;;;;;;;;5054373;28;20066;-75
2022/08/17 10:05:22;;;;;;;3.35;2.00;;;;;;;;;;5072064;28;20121;-75
2022/08/17 10:08:05;;;;;;;3.33;1.80;;;;;;;;;;5054089;28;20031;-73
2022/08/17 10:10:41;;;;;;;6.50;1.85;;;;;;;;;;5054462;28;20020;-74
2022/08/17 10:13:27;;;;;;;3.47;2.00;;;;;;;;;;5075447;28;20017;-76
2022/08/17 10:16:29;;;;;;;6.80;2.20;;;;;;;;;;5076233;28;20074;-74
2022/08/17 10:19:12;;;;;;;4.15;2.20;;;;;;;;;;5075719;28;20060;-75
2022/08/17 10:27:18;;;;;;;5.45;1.92;;;;;;;;;;5075536;28;20030;-74
2022/08/17 10:29:57;;;;;;;9.15;1.95;;;;;;;;;;5075338;28;20024;-74
2022/08/17 10:32:32;;;;;;;7.53;2.28;;;;;;;;;;5075784;28;20091;-75
2022/08/17 10:35:27;;;;;;;3.70;1.85;;;;;;;;;;5075251;28;20116;-75
2022/08/17 10:38:07;;;;;;;3.33;2.15;;;;;;;;;;5075420;28;20104;-75
2022/08/17 10:40:57;;;;;;;10.77;2.15;;;;;;;;;;5075300;28;20032;-75
2022/08/17 10:43:58;;;;;;;2.45;1.92;;;;;;;;;;5075079;28;20082;-75
2022/08/17 10:46:49;;;;;;;13.48;2.25;;;;;;;;;;5057093;28;20056;-74
2022/08/17 10:49:17;;;;;;;2.90;1.80;;;;;;;;;;5075310;28;20336;-76
2022/08/17 10:51:46;;;;;;;4.68;2.25;;;;;;;;;;5057145;28;20071;-74
2022/08/17 10:54:33;;;;;;;9.55;2.20;;;;;;;;;;5074850;28;20107;-75
2022/08/17 10:56:59;;;;;;;8.00;2.42;;;;;;;;;;5074848;28;20478;-75
2022/08/17 10:59:33;;;;;;;6.38;2.40;;;;;;;;;;5075411;28;20043;-76
2022/08/17 11:02:40;;;;;;;5.22;2.40;;;;;;;;;;5056977;28;20090;-74
2022/08/17 11:05:37;;;;;;;3.00;2.15;;;;;;;;;;5009013;28;20040;-75
2022/08/17 11:08:55;;;;;;;7.80;2.33;;;;;;;;;;5065807;28;20052;-74
2022/08/17 11:11:52;;;;;;;3.60;2.20;;;;;;;;;;5020514;28;20063;-75
2022/08/17 11:14:40;;;;;;;9.43;2.35;;;;;;;;;;5074809;28;20103;-75
2022/08/17 11:17:50;;;;;;;5.50;2.15;;;;;;;;;;5074982;28;20031;-75
2022/08/17 11:20:50;;;;;;;3.58;1.85;;;;;;;;;;5056633;28;20059;-76
2022/08/17 11:23:36;;;;;;;3.05;2.00;;;;;;;;;;5074125;28;20048;-74
2022/08/17 11:26:16;;;;;;;7.25;2.00;;;;;;;;;;5056378;28;20400;-76
2022/08/17 11:28:48;;;;;;;3.00;2.25;;;;;;;;;;5074858;28;20032;-75
2022/08/17 11:31:26;;;;;;;3.67;1.83;;;;;;;;;;5056503;28;20035;-74
2022/08/17 11:33:56;;;;;;;5.53;2.20;;;;;;;;;;5056919;28;20037;-75
2022/08/17 11:36:35;;;;;;;3.70;2.00;;;;;;;;;;5074891;28;20024;-75
2022/08/17 11:39:15;;;;;;;3.38;1.95;;;;;;;;;;5074370;28;20032;-74
2022/08/17 11:41:53;;;;;;;4.18;1.80;;;;;;;;;;5074352;28;20031;-75
2022/08/17 11:44:53;;;;;;;8.80;2.10;;;;;;;;;;5074268;28;20485;-76
2022/08/17 11:53:37;;;;;;;2.70;1.95;;;;;;;;;;5074446;28;20154;-75
2022/08/17 11:56:09;;;;;;;4.13;2.20;;;;;;;;;;5073954;28;20035;-74
2022/08/17 11:58:40;;;;;;;5.03;2.38;;;;;;;;;;5073735;28;20472;-75
2022/08/17 12:01:31;;;;;;;6.28;2.00;;;;;;;;;;5073787;28;20025;-75
2022/08/17 12:04:20;;;;;;;4.13;2.08;;;;;;;;;;5073504;28;20067;-75
2022/08/17 12:06:53;;;;;;;6.70;2.20;;;;;;;;;;5074333;28;20021;-74
2022/08/17 12:09:20;;;;;;;;;;;;;;;;;;5074078;28;20047;-74
2022/08/17 12:11:52;;;;;;;2.42;1.90;;;;;;;;;;5073884;28;19908;-74
2022/08/17 12:14:25;;;;;;;6.38;2.28;;;;;;;;;;5055545;28;20016;-74
2022/08/17 12:17:05;;;;;;;6.25;2.03;;;;;;;;;;5073621;28;20054;-74
2022/08/17 12:19:33;;;;;;;2.58;2.13;;;;;;;;;;5073852;28;20052;-75
2022/08/17 12:22:24;;;;;;;5.05;2.13;;;;;;;;;;5073397;28;20481;-74
2022/08/17 12:24:58;;;;;;;5.30;2.00;;;;;;;;;;5055248;28;20032;-73
2022/08/17 12:27:28;;;;;;;3.78;2.17;;;;;;;;;;5073294;28;20100;-74
2022/08/17 12:29:53;;;;;;;9.77;2.13;;;;;;;;;;5073111;28;20035;-75
2022/08/17 12:32:20;;;;;;;4.95;2.00;;;;;;;;;;5073327;28;20028;-75
2022/08/17 12:34:48;;;;;;;2.63;2.10;;;;;;;;;;5072784;28;20024;-75
2022/08/17 12:37:23;;;;;;;5.50;2.00;;;;;;;;;;5073269;28;20082;-75
2022/08/17 12:39:58;;;;;;;6.78;2.05;;;;;;;;;;5055047;28;20477;-75
2022/08/17 12:42:28;;;;;;;3.60;1.98;;;;;;;;;;5073522;28;20385;-75
2022/08/17 12:44:54;;;;;;;5.25;2.10;;;;;;;;;;5072840;28;20033;-75
2022/08/17 12:47:19;;;;;;;3.33;1.88;;;;;;;;;;5073341;28;20029;-74
2022/08/17 12:49:47;;;;;;;3.25;2.15;;;;;;;;;;5073317;28;20107;-74
2022/08/17 12:52:28;;;;;;;2.75;1.92;;;;;;;;;;5073047;28;20024;-76
2022/08/17 12:54:58;;;;;;;4.07;1.90;;;;;;;;;;5073022;28;20021;-75
2022/08/17 12:57:30;;;;;;;2.97;2.40;;;;;;;;;;5072997;28;20028;-75
2022/08/17 12:59:59;;;;;;;9.13;2.03;;;;;;;;;;5056343;28;20115;-75
2022/08/17 13:02:30;;;;;;;4.80;1.77;;;;;;;;;;5073390;28;20136;-75
2022/08/17 13:04:57;;;;;;;4.80;2.10;;;;;;;;;;5073139;28;20024;-76
2022/08/17 13:07:33;;;;;;;3.25;2.00;;;;;;;;;;5072973;28;20032;-75
2022/08/17 13:09:58;;;;;;;3.33;2.00;;;;;;;;;;5073293;28;20029;-75
2022/08/17 13:12:28;;;;;;;8.27;2.10;;;;;;;;;;5072953;28;20031;-75
2022/08/17 13:14:53;;;;;;;4.28;1.90;;;;;;;;;;5072854;28;20265;-75
2022/08/17 13:17:28;;;;;;;11.32;2.10;;;;;;;;;;5073272;28;20027;-76
2022/08/17 13:19:53;;;;;;;5.50;1.98;;;;;;;;;;5073188;28;20025;-75
2022/08/17 13:22:22;;;;;;;5.93;2.10;;;;;;;;;;5073137;28;20385;-75
2022/08/17 13:24:53;;;;;;;9.90;2.17;;;;;;;;;;5072679;28;20038;-75
2022/08/17 13:27:22;;;;;;;2.20;2.00;;;;;;;;;;5073066;28;20028;-74
2022/08/17 13:29:52;;;;;;;4.68;1.90;;;;;;;;;;5072471;28;20028;-75
2022/08/17 13:32:31;;;;;;;4.45;1.90;;;;;;;;;;5073025;28;20024;-74
2022/08/17 13:34:59;;;;;;;6.28;1.80;;;;;;;;;;5072960;28;20470;-75
2022/08/17 13:37:29;;;;;;;3.80;2.00;;;;;;;;;;5072543;28;20024;-75
2022/08/17 13:40:10;;;;;;;3.05;1.90;;;;;;;;;;5072765;28;20150;-76
2022/08/17 13:42:41;;;;;;;6.07;2.00;;;;;;;;;;5072606;28;20397;-74
2022/08/17 13:45:32;;;;;;;5.78;2.10;;;;;;;;;;5072646;28;20077;-75
2022/08/17 13:48:15;;;;;;;4.43;2.08;;;;;;;;;;5076525;28;20025;-73
2022/08/17 13:50:55;;;;;;;3.70;1.80;;;;;;;;;;5076668;28;20035;-75
2022/08/17 13:53:46;;;;;;;6.38;1.90;;;;;;;;;;5076752;28;20394;-74
2022/08/17 13:56:23;;;;;;;8.48;2.03;;;;;;;;;;5076369;28;20394;-75
2022/08/17 13:58:59;;;;;;;2.95;2.03;;;;;;;;;;5076330;28;20043;-74
2022/08/17 14:01:45;;;;;;;4.00;2.10;;;;;;;;;;5076372;28;20033;-75
2022/08/17 14:04:17;;;;;;;4.55;1.80;;;;;;;;;;5058267;28;20025;-74
2022/08/17 14:06:45;;;;;;;3.80;2.10;;;;;;;;;;5076743;28;20358;-75
2022/08/17 14:09:10;;;;;;;3.63;2.10;;;;;;;;;;5076181;28;20016;-75
2022/08/17 14:11:37;;;;;;;2.80;1.75;;;;;;;;;;5076084;28;20067;-74
2022/08/17 14:14:02;;;;;;;4.53;2.10;;;;;;;;;;5075822;28;20017;-74
2022/08/17 14:16:28;;;;;;;5.63;2.30;;;;;;;;;;5075907;28;20023;-74
2022/08/17 14:18:53;;;;;;;4.53;2.03;;;;;;;;;;5075914;28;20090;-74
2022/08/17 14:21:19;;;;;;;4.13;2.13;;;;;;;;;;5076127;28;20028;-75
2022/08/17 14:23:44;;;;;;;7.20;1.95;;;;;;;;;;5075545;28;20033;-76
2022/08/17 14:26:09;;;;;;;8.80;2.17;;;;;;;;;;5057852;28;20020;-75
2022/08/17 14:28:35;;;;;;;10.97;2.17;;;;;;;;;;5075787;28;20258;-75
2022/08/17 14:31:00;;;;;;;3.95;2.10;;;;;;;;;;5075890;28;20032;-75
2022/08/17 14:33:27;;;;;;;3.70;2.17;;;;;;;;;;5075714;28;20137;-76
2022/08/17 14:35:53;;;;;;;5.10;2.17;;;;;;;;;;5057720;28;20249;-75
2022/08/17 14:38:19;;;;;;;3.72;2.20;;;;;;;;;;5075710;28;20427;-75
2022/08/17 14:40:46;;;;;;;4.38;1.98;;;;;;;;;;5057618;28;20064;-75
2022/08/17 14:43:14;;;;;;;6.18;2.17;;;;;;;;;;5075476;28;20036;-74
2022/08/17 14:45:40;;;;;;;2.30;1.80;;;;;;;;;;5075375;28;20071;-76
2022/08/17 14:48:08;;;;;;;5.13;1.92;;;;;;;;;;5075768;28;20036;-76
2022/08/17 14:50:34;;;;;;;2.85;1.90;;;;;;;;;;5075244;28;20389;-75
2022/08/17 14:53:02;;;;;;;2.78;2.13;;;;;;;;;;5057160;28;20055;-74
2022/08/17 14:55:28;;;;;;;3.53;2.10;;;;;;;;;;5075393;28;20031;-76
2022/08/17 14:57:53;;;;;;;2.95;1.88;;;;;;;;;;5074334;28;20196;-74
2022/08/17 15:00:18;;;;;;;1.97;1.77;;;;;;;;;;5057177;28;20452;-74
2022/08/17 15:02:52;;;;;;;4.80;2.00;;;;;;;;;;5075275;28;20025;-73
2022/08/17 15:05:18;;;;;;;5.90;2.05;;;;;;;;;;5075588;28;20484;-74
2022/08/17 15:07:44;;;;;;;11.95;2.30;;;;;;;;;;5057134;28;20565;-74
2022/08/17 15:10:11;;;;;;;6.28;2.13;;;;;;;;;;5075096;28;20056;-75
2022/08/17 15:12:38;;;;;;;6.80;1.90;;;;;;;;;;5075191;28;20025;-74
2022/08/17 15:15:05;;;;;;;4.47;2.20;;;;;;;;;;5074803;28;20020;-74
2022/08/17 15:17:31;;;;;;;7.45;2.00;;;;;;;;;;5075026;28;20055;-74
2022/08/17 15:19:56;;;;;;;4.72;2.10;;;;;;;;;;5074708;28;20459;-75
2022/08/17 15:22:24;;;;;;;7.77;1.87;;;;;;;;;;5074746;28;20044;-76
2022/08/17 15:24:50;;;;;;;4.65;1.90;;;;;;;;;;5074519;28;20273;-74
2022/08/17 15:27:15;;;;;;;4.65;2.05;;;;;;;;;;5074378;28;20028;-76
2022/08/17 15:29:40;;;;;;;7.43;2.20;;;;;;;;;;5056546;28;20051;-75
2022/08/17 15:32:05;;;;;;;5.30;2.00;;;;;;;;;;5056943;28;20025;-75
2022/08/17 15:34:31;;;;;;;3.53;2.00;;;;;;;;;;5074376;28;20017;-75
2022/08/17 15:36:56;;;;;;;3.23;2.00;;;;;;;;;;5074707;28;20016;-74
2022/08/17 15:39:21;;;;;;;5.30;2.00;;;;;;;;;;5075256;28;20056;-73
2022/08/17 15:41:46;;;;;;;4.97;2.37;;;;;;;;;;5074837;28;20074;-74
2022/08/17 15:44:11;;;;;;;10.90;1.83;;;;;;;;;;5073838;28;20281;-75
2022/08/17 15:46:37;;;;;;;5.40;2.23;;;;;;;;;;5074389;28;20025;-74
2022/08/17 15:49:02;;;;;;;8.00;2.05;;;;;;;;;;5074214;28;20257;-74